Time,TemperatureF,DewpointF,PressureIn,WindDirection,WindDirectionDegrees,WindSpeedMPH,WindSpeedGustMPH,Humidity,HourlyPrecipIn,Conditions,Clouds,dailyrainin,SolarRadiationWatts/m^2,SoftwareType,DateUTC
2013-02-22 00:01:00,16.0,11.0,-100.00,SW,225,3.0,7.0,81,0.00,,,0.00,0.000000,,2013-02-22 07:01:00,
2013-02-22 00:11:00,16.0,11.0,-100.00,SW,225,3.0,7.0,81,0.00,,,0.00,0.000000,,2013-02-22 07:11:00,
2013-02-22 00:21:00,16.0,11.0,-100.00,SW,225,3.0,7.0,81,0.00,,,0.00,0.000000,,2013-02-22 07:21:00,
2013-02-22 00:31:00,16.0,11.0,-100.00,SW,225,3.0,7.0,81,0.00,,,0.00,0.000000,,2013-02-22 07:31:00,
2013-02-22 00:52:00,15.0,10.0,-100.00,SW,216,2.0,6.0,81,0.00,,,-99.99,0.000000,,2013-02-22 07:52:00,
2013-02-22 01:01:00,15.0,10.0,-100.00,SW,216,2.0,6.0,81,0.00,,,-99.99,0.000000,,2013-02-22 08:01:00,
2013-02-22 01:11:00,15.0,10.0,-100.00,SW,216,2.0,6.0,81,0.00,,,-99.99,0.000000,,2013-02-22 08:11:00,
2013-02-22 01:21:00,15.0,10.0,-100.00,SW,216,2.0,6.0,81,0.00,,,-99.99,0.000000,,2013-02-22 08:21:00,
2013-02-22 01:31:00,15.0,10.0,-100.00,SW,216,2.0,6.0,81,0.00,,,-99.99,0.000000,,2013-02-22 08:31:00,
2013-02-22 02:03:00,15.0,10.0,-100.00,SW,231,2.0,7.0,80,0.00,,,-99.99,0.000000,,2013-02-22 09:03:00,
2013-02-22 02:11:00,15.0,10.0,-100.00,SW,231,2.0,7.0,80,0.00,,,-99.99,0.000000,,2013-02-22 09:11:00,
2013-02-22 02:21:00,15.0,10.0,-100.00,SW,231,2.0,7.0,80,0.00,,,-99.99,0.000000,,2013-02-22 09:21:00,
2013-02-22 02:31:00,15.0,10.0,-100.00,SW,231,2.0,7.0,80,0.00,,,-99.99,0.000000,,2013-02-22 09:31:00,
2013-02-22 03:01:00,9.0,4.0,-100.00,WSW,250,0.0,7.0,80,0.00,,,0.00,0.000000,,2013-02-22 10:01:00,
2013-02-22 03:11:00,9.0,4.0,-100.00,WSW,250,0.0,7.0,80,0.00,,,0.00,0.000000,,2013-02-22 10:11:00,
2013-02-22 03:21:00,9.0,4.0,-100.00,WSW,250,0.0,7.0,80,0.00,,,0.00,0.000000,,2013-02-22 10:21:00,
2013-02-22 03:31:00,9.0,4.0,-100.00,WSW,250,0.0,7.0,80,0.00,,,0.00,0.000000,,2013-02-22 10:31:00,
2013-02-22 03:52:00,5.0,0.0,-100.00,West,280,0.0,4.0,81,0.00,,,0.00,0.000000,,2013-02-22 10:52:00,
2013-02-22 04:01:00,5.0,0.0,-100.00,West,280,0.0,4.0,81,0.00,,,0.00,0.000000,,2013-02-22 11:01:00,
2013-02-22 04:21:00,5.0,0.0,-100.00,West,280,0.0,4.0,81,0.00,,,0.00,0.000000,,2013-02-22 11:21:00,
2013-02-22 04:31:00,5.0,0.0,-100.00,West,280,0.0,4.0,81,0.00,,,0.00,0.000000,,2013-02-22 11:31:00,
2013-02-22 05:02:00,0.0,-5.0,-100.00,SE,131,0.0,2.0,77,0.00,,,0.00,0.000000,,2013-02-22 12:02:00,
2013-02-22 05:32:00,0.0,-99.9,-100.00,SE,131,0.0,2.0,77,0.00,,,0.00,0.000000,,2013-02-22 12:32:00,
2013-02-22 05:52:00,2.0,-3.0,-100.00,NNW,328,0.0,3.0,80,-99.99,,,0.00,0.000000,,2013-02-22 12:52:00,
2013-02-22 06:01:00,2.0,-3.0,-100.00,NNW,328,0.0,3.0,80,-99.99,,,0.00,0.000000,,2013-02-22 13:01:00,
2013-02-22 07:01:00,1.0,-4.0,-100.00,SSW,195,0.0,2.0,77,0.00,,,0.00,0.000000,,2013-02-22 14:01:00,
2013-02-22 08:01:00,2.0,-3.0,-100.00,WNW,284,0.0,2.0,80,-99.99,,,0.00,3.000000,,2013-02-22 15:01:00,
2013-02-22 09:01:00,8.0,3.0,-100.00,West,280,0.0,3.0,80,-99.99,,,0.00,34.000000,,2013-02-22 16:01:00,
2013-02-22 09:11:00,8.0,3.0,-100.00,West,280,0.0,3.0,80,-99.99,,,0.00,34.000000,,2013-02-22 16:11:00,
2013-02-22 09:21:00,8.0,3.0,-100.00,West,280,0.0,3.0,80,-99.99,,,0.00,34.000000,,2013-02-22 16:21:00,
2013-02-22 09:31:00,8.0,3.0,-100.00,West,280,0.0,3.0,80,-99.99,,,0.00,34.000000,,2013-02-22 16:31:00,
2013-02-22 10:01:00,17.0,11.0,-100.00,SSW,201,5.0,10.0,76,0.00,,,0.00,52.000000,,2013-02-22 17:01:00,
2013-02-22 10:11:00,17.0,11.0,-100.00,SSW,201,5.0,10.0,76,0.00,,,0.00,52.000000,,2013-02-22 17:11:00,
2013-02-22 10:21:00,17.0,11.0,-100.00,SSW,201,5.0,10.0,76,0.00,,,0.00,52.000000,,2013-02-22 17:21:00,
2013-02-22 10:31:00,17.0,11.0,-100.00,SSW,201,5.0,10.0,76,0.00,,,0.00,52.000000,,2013-02-22 17:31:00,
2013-02-22 11:01:00,23.0,12.0,-100.00,SW,231,6.0,14.0,61,0.00,,,0.00,330.000000,,2013-02-22 18:01:00,
2013-02-22 11:12:00,23.0,12.0,-100.00,SW,231,6.0,14.0,61,0.00,,,0.00,330.000000,,2013-02-22 18:12:00,
2013-02-22 11:22:00,23.0,12.0,-100.00,SW,231,6.0,14.0,61,0.00,,,0.00,330.000000,,2013-02-22 18:22:00,
2013-02-22 11:31:00,23.0,12.0,-100.00,SW,231,6.0,14.0,61,0.00,,,0.00,330.000000,,2013-02-22 18:31:00,
2013-02-22 11:52:00,25.0,13.0,-100.00,SW,223,7.0,14.0,59,0.00,,,0.00,316.000000,,2013-02-22 18:52:00,
2013-02-22 12:01:00,25.0,13.0,-100.00,SW,223,7.0,14.0,59,0.00,,,0.00,316.000000,,2013-02-22 19:01:00,
2013-02-22 12:11:00,25.0,13.0,-100.00,SW,223,7.0,14.0,59,0.00,,,0.00,316.000000,,2013-02-22 19:11:00,
2013-02-22 12:21:00,25.0,13.0,-100.00,SW,223,7.0,14.0,59,0.00,,,0.00,316.000000,,2013-02-22 19:21:00,
2013-02-22 12:31:00,25.0,13.0,-100.00,SW,223,7.0,14.0,59,0.00,,,0.00,316.000000,,2013-02-22 19:31:00,
2013-02-22 12:52:00,24.0,14.0,-100.00,SSW,210,6.0,15.0,64,0.00,,,0.00,302.000000,,2013-02-22 19:52:00,
2013-02-22 13:01:00,24.0,14.0,-100.00,SSW,210,6.0,15.0,64,0.00,,,0.00,302.000000,,2013-02-22 20:01:00,
2013-02-22 13:11:00,24.0,14.0,-100.00,SSW,210,6.0,15.0,64,0.00,,,0.00,302.000000,,2013-02-22 20:11:00,
2013-02-22 13:21:00,24.0,14.0,-100.00,SSW,210,6.0,15.0,64,0.00,,,0.00,302.000000,,2013-02-22 20:21:00,
2013-02-22 13:31:00,24.0,14.0,-100.00,SSW,210,6.0,15.0,64,0.00,,,0.00,302.000000,,2013-02-22 20:31:00,
2013-02-22 13:52:00,25.0,13.0,-100.00,SW,217,7.0,19.0,60,0.00,,,0.00,427.000000,,2013-02-22 20:52:00,
2013-02-22 14:01:00,25.0,13.0,-100.00,SW,217,7.0,19.0,60,0.00,,,0.00,427.000000,,2013-02-22 21:01:00,
2013-02-22 14:11:00,25.0,13.0,-100.00,SW,217,7.0,19.0,60,0.00,,,0.00,427.000000,,2013-02-22 21:11:00,
2013-02-22 14:21:00,25.0,13.0,-100.00,SW,217,7.0,19.0,60,0.00,,,0.00,427.000000,,2013-02-22 21:21:00,
2013-02-22 14:31:00,25.0,13.0,-100.00,SW,217,7.0,19.0,60,0.00,,,0.00,427.000000,,2013-02-22 21:31:00,
2013-02-22 15:01:00,24.0,14.0,-100.00,SW,219,6.0,19.0,65,0.00,,,0.00,331.000000,,2013-02-22 22:01:00,
2013-02-22 15:11:00,24.0,14.0,-100.00,SW,219,6.0,19.0,65,0.00,,,0.00,331.000000,,2013-02-22 22:11:00,
2013-02-22 15:21:00,24.0,14.0,-100.00,SW,219,6.0,19.0,65,0.00,,,0.00,331.000000,,2013-02-22 22:21:00,
2013-02-22 15:31:00,24.0,14.0,-100.00,SW,219,6.0,19.0,65,0.00,,,0.00,331.000000,,2013-02-22 22:31:00,
2013-02-22 16:01:00,22.0,13.0,-100.00,SSW,213,7.0,19.0,67,0.00,,,0.00,192.000000,,2013-02-22 23:01:00,
2013-02-22 16:11:00,22.0,13.0,-100.00,SSW,213,7.0,19.0,67,0.00,,,0.00,192.000000,,2013-02-22 23:11:00,
2013-02-22 16:21:00,22.0,13.0,-100.00,SSW,213,7.0,19.0,67,0.00,,,0.00,192.000000,,2013-02-22 23:21:00,
2013-02-22 16:31:00,22.0,13.0,-100.00,SSW,213,7.0,19.0,67,0.00,,,0.00,192.000000,,2013-02-22 23:31:00,
2013-02-22 17:01:00,20.0,13.0,-100.00,SSW,212,6.0,14.0,74,0.00,,,0.00,126.000000,,2013-02-23 00:01:00,
2013-02-22 17:11:00,20.0,13.0,-100.00,SSW,212,6.0,14.0,74,0.00,,,0.00,126.000000,,2013-02-23 00:11:00,
2013-02-22 17:21:00,20.0,13.0,-100.00,SSW,212,6.0,14.0,74,0.00,,,0.00,126.000000,,2013-02-23 00:21:00,
2013-02-22 17:31:00,20.0,13.0,-100.00,SSW,212,6.0,14.0,74,0.00,,,0.00,126.000000,,2013-02-23 00:31:00,
2013-02-22 18:01:00,20.0,13.0,-100.00,SSW,212,6.0,15.0,73,0.00,,,0.00,49.000000,,2013-02-23 01:01:00,
2013-02-22 18:11:00,20.0,13.0,-100.00,SSW,212,6.0,15.0,73,0.00,,,0.00,49.000000,,2013-02-23 01:11:00,
2013-02-22 18:21:00,20.0,13.0,-100.00,SSW,212,6.0,15.0,73,0.00,,,0.00,49.000000,,2013-02-23 01:21:00,
2013-02-22 18:31:00,20.0,13.0,-100.00,SSW,212,6.0,15.0,73,0.00,,,0.00,49.000000,,2013-02-23 01:31:00,
2013-02-22 19:01:00,20.0,14.0,-100.00,SW,223,4.0,12.0,76,0.00,,,0.00,3.000000,,2013-02-23 02:01:00,
2013-02-22 19:11:00,20.0,14.0,-100.00,SW,223,4.0,12.0,76,0.00,,,0.00,3.000000,,2013-02-23 02:11:00,
2013-02-22 19:21:00,20.0,14.0,-100.00,SW,223,4.0,12.0,76,0.00,,,0.00,3.000000,,2013-02-23 02:21:00,
2013-02-22 19:31:00,20.0,14.0,-100.00,SW,223,4.0,12.0,76,0.00,,,0.00,3.000000,,2013-02-23 02:31:00,
2013-02-22 20:01:00,20.0,16.0,-100.00,SW,220,5.0,12.0,85,0.00,,,0.00,0.000000,,2013-02-23 03:01:00,
2013-02-22 20:11:00,20.0,16.0,-100.00,SW,220,5.0,12.0,85,0.00,,,0.00,0.000000,,2013-02-23 03:11:00,
2013-02-22 20:21:00,20.0,16.0,-100.00,SW,220,5.0,12.0,85,0.00,,,0.00,0.000000,,2013-02-23 03:21:00,
2013-02-22 20:31:00,20.0,16.0,-100.00,SW,220,5.0,12.0,85,0.00,,,0.00,0.000000,,2013-02-23 03:31:00,
2013-02-22 21:01:00,21.0,18.0,-100.00,SW,224,5.0,18.0,89,0.00,,,0.00,0.000000,,2013-02-23 04:01:00,
2013-02-22 21:11:00,21.0,18.0,-100.00,SW,224,5.0,18.0,89,0.00,,,0.00,0.000000,,2013-02-23 04:11:00,
2013-02-22 21:21:00,21.0,18.0,-100.00,SW,224,5.0,18.0,89,0.00,,,0.00,0.000000,,2013-02-23 04:21:00,
2013-02-22 21:31:00,21.0,18.0,-100.00,SW,224,5.0,18.0,89,0.00,,,0.00,0.000000,,2013-02-23 04:31:00,
2013-02-22 22:02:00,22.0,19.0,-100.00,SSW,206,4.0,19.0,87,0.00,,,0.00,0.000000,,2013-02-23 05:02:00,
2013-02-22 22:12:00,22.0,19.0,-100.00,SSW,206,4.0,19.0,87,0.00,,,0.00,0.000000,,2013-02-23 05:12:00,
2013-02-22 22:22:00,22.0,19.0,-100.00,SSW,206,4.0,19.0,87,0.00,,,0.00,0.000000,,2013-02-23 05:22:00,
2013-02-22 22:32:00,22.0,19.0,-100.00,SSW,206,4.0,19.0,87,0.00,,,0.00,0.000000,,2013-02-23 05:32:00,
2013-02-22 23:01:00,22.0,19.0,-100.00,SW,216,4.0,19.0,87,0.00,,,0.00,0.000000,,2013-02-23 06:01:00,
2013-02-22 23:11:00,22.0,19.0,-100.00,SW,216,4.0,19.0,87,0.00,,,0.00,0.000000,,2013-02-23 06:11:00,
2013-02-22 23:22:00,22.0,19.0,-100.00,SW,216,4.0,19.0,87,0.00,,,0.00,0.000000,,2013-02-23 06:22:00,
2013-02-22 23:31:00,22.0,19.0,-100.00,SW,216,4.0,19.0,87,0.00,,,0.00,0.000000,,2013-02-23 06:31:00,